Time;durP1;ratioP1;P1;durP2;ratioP2;P2;SDS_P1;SDS_P2;PMS_P1;PMS_P2;Temp;Humidity;BMP_temperature;BMP_pressure;BME280_temperature;BME280_humidity;BME280_pressure;Samples;Min_cycle;Max_cycle;Signal;HPM_P1;HPM_P2
2023/03/23 00:01:13;;;;;;;14.02;9.57;;;;;;;;;;5023389;28;20520;-75
2023/03/23 00:03:39;;;;;;;12.63;8.50;;;;;;;;;;5018391;28;20057;-76
2023/03/23 00:06:06;;;;;;;14.68;7.57;;;;;;;;;;5015897;28;20048;-76
2023/03/23 00:08:45;;;;;;;11.05;7.10;;;;;;;;;;5018281;28;20381;-76
2023/03/23 00:11:16;;;;;;;8.63;5.25;;;;;;;;;;5015703;28;20049;-77
2023/03/23 00:13:43;;;;;;;7.93;6.03;;;;;;;;;;5012978;28;20049;-77
2023/03/23 00:16:17;;;;;;;10.25;6.40;;;;;;;;;;5009037;28;20045;-77
2023/03/23 00:18:47;;;;;;;10.27;7.43;;;;;;;;;;5012985;28;20048;-77
2023/03/23 00:21:13;;;;;;;12.43;8.30;;;;;;;;;;5012307;28;20041;-77
2023/03/23 00:23:39;;;;;;;13.63;8.80;;;;;;;;;;4984740;28;20053;-77
2023/03/23 00:26:06;;;;;;;16.98;10.38;;;;;;;;;;5012510;28;20079;-77
2023/03/23 00:28:32;;;;;;;18.70;11.57;;;;;;;;;;5000642;28;20083;-78
2023/03/23 00:31:00;;;;;;;26.67;14.77;;;;;;;;;;4997465;28;21013;-77
2023/03/23 00:33:27;;;;;;;36.28;17.65;;;;;;;;;;5011520;28;20060;-78
2023/03/23 00:35:54;;;;;;;20.48;9.93;;;;;;;;;;5013401;28;20254;-78
2023/03/23 00:38:21;;;;;;;23.02;10.15;;;;;;;;;;4996558;28;20052;-78
2023/03/23 00:40:47;;;;;;;12.27;7.50;;;;;;;;;;5010618;28;20045;-78
2023/03/23 00:43:17;;;;;;;12.82;7.28;;;;;;;;;;4999351;28;20489;-77
2023/03/23 00:45:52;;;;;;;15.52;7.03;;;;;;;;;;5009560;28;20045;-78
2023/03/23 00:48:22;;;;;;;14.70;6.50;;;;;;;;;;4994348;28;20045;-77
2023/03/23 00:50:48;;;;;;;11.20;6.78;;;;;;;;;;5001183;28;20931;-77
2023/03/23 00:53:15;;;;;;;9.68;5.97;;;;;;;;;;4987942;28;20040;-76
2023/03/23 00:55:45;;;;;;;13.18;7.10;;;;;;;;;;5015762;28;20037;-77
2023/03/23 00:58:11;;;;;;;11.85;7.40;;;;;;;;;;5016385;28;20038;-77
2023/03/23 01:00:38;;;;;;;9.40;6.50;;;;;;;;;;4999101;28;20098;-77
2023/03/23 01:03:05;;;;;;;10.02;5.57;;;;;;;;;;4998577;28;20051;-77
2023/03/23 01:05:35;;;;;;;8.95;5.18;;;;;;;;;;5019055;28;20057;-77
2023/03/23 01:08:01;;;;;;;8.38;5.10;;;;;;;;;;4997324;28;20037;-76
2023/03/23 01:10:28;;;;;;;9.50;6.32;;;;;;;;;;4999369;28;20052;-77
2023/03/23 01:12:54;;;;;;;12.80;7.50;;;;;;;;;;5010619;28;20801;-76
2023/03/23 01:15:21;;;;;;;15.00;10.82;;;;;;;;;;5008516;28;20106;-76
2023/03/23 01:17:47;;;;;;;23.40;16.40;;;;;;;;;;4996261;28;20037;-77
2023/03/23 01:20:14;;;;;;;24.25;15.77;;;;;;;;;;4990507;28;20508;-76
2023/03/23 01:22:42;;;;;;;31.33;20.83;;;;;;;;;;5011241;28;20048;-77
2023/03/23 01:25:08;;;;;;;35.90;23.80;;;;;;;;;;4989777;28;20048;-77
2023/03/23 01:27:34;;;;;;;37.28;23.70;;;;;;;;;;5008501;28;20107;-77
2023/03/23 01:30:00;;;;;;;23.33;17.20;;;;;;;;;;5009138;28;20059;-77
2023/03/23 01:32:27;;;;;;;28.90;19.08;;;;;;;;;;4991110;28;20049;-77
2023/03/23 01:34:53;;;;;;;30.63;19.95;;;;;;;;;;4993858;28;20056;-77
2023/03/23 01:37:19;;;;;;;30.10;14.40;;;;;;;;;;4996797;28;20053;-77
2023/03/23 01:39:45;;;;;;;14.07;11.90;;;;;;;;;;4980017;28;20135;-77
2023/03/23 01:42:12;;;;;;;15.48;9.20;;;;;;;;;;5020322;28;20037;-76
2023/03/23 01:44:38;;;;;;;12.35;7.35;;;;;;;;;;5020090;28;20037;-76
2023/03/23 01:47:04;;;;;;;14.00;8.23;;;;;;;;;;5014196;28;20080;-77
2023/03/23 01:49:36;;;;;;;14.07;6.88;;;;;;;;;;5002022;28;20045;-76
2023/03/23 01:52:02;;;;;;;6.80;5.63;;;;;;;;;;5010390;28;20060;-76
2023/03/23 01:54:29;;;;;;;8.75;5.38;;;;;;;;;;5011273;28;21570;-77
2023/03/23 01:57:08;;;;;;;9.73;5.22;;;;;;;;;;5013989;28;20041;-76
2023/03/23 01:59:35;;;;;;;8.18;5.65;;;;;;;;;;5014513;28;20049;-76
2023/03/23 02:02:02;;;;;;;6.38;4.47;;;;;;;;;;5013588;28;20064;-77
2023/03/23 02:04:29;;;;;;;9.60;5.32;;;;;;;;;;4998374;28;20052;-76
2023/03/23 02:06:57;;;;;;;10.63;6.15;;;;;;;;;;5005333;28;20393;-77
2023/03/23 02:09:25;;;;;;;9.65;6.65;;;;;;;;;;4997389;28;20092;-77
2023/03/23 02:11:51;;;;;;;10.98;7.68;;;;;;;;;;5013247;28;20525;-77
2023/03/23 02:14:18;;;;;;;15.60;9.27;;;;;;;;;;5009232;28;20041;-77
2023/03/23 02:16:53;;;;;;;13.23;9.65;;;;;;;;;;5008289;28;20040;-77
2023/03/23 02:19:38;;;;;;;15.93;11.23;;;;;;;;;;4993568;28;20037;-77
2023/03/23 02:22:03;;;;;;;;;;;;;;;;;;5008616;28;20564;-77
2023/03/23 02:24:39;;;;;;;17.42;11.95;;;;;;;;;;5011118;28;19928;-77
2023/03/23 02:27:32;;;;;;;15.15;10.52;;;;;;;;;;5007387;28;20469;-77
2023/03/23 02:30:01;;;;;;;18.45;10.73;;;;;;;;;;5002939;28;21732;-76
2023/03/23 02:32:33;;;;;;;15.98;10.32;;;;;;;;;;5005633;28;20045;-77
2023/03/23 02:35:01;;;;;;;12.40;8.90;;;;;;;;;;5006702;28;20167;-77
2023/03/23 02:37:27;;;;;;;17.30;9.45;;;;;;;;;;5011575;28;20056;-77
2023/03/23 02:39:56;;;;;;;12.10;8.27;;;;;;;;;;5009751;28;20049;-77
2023/03/23 02:42:26;;;;;;;15.30;8.57;;;;;;;;;;4993295;28;20041;-77
2023/03/23 02:44:53;;;;;;;12.13;7.55;;;;;;;;;;5002204;28;20056;-77
2023/03/23 02:47:24;;;;;;;12.95;8.13;;;;;;;;;;5017554;28;20126;-77
2023/03/23 02:49:52;;;;;;;9.85;6.03;;;;;;;;;;5013960;28;20072;-77
2023/03/23 02:52:22;;;;;;;12.85;7.07;;;;;;;;;;5013999;28;20164;-77
2023/03/23 02:54:50;;;;;;;13.27;8.38;;;;;;;;;;4997246;28;20164;-77
2023/03/23 02:57:17;;;;;;;10.00;6.40;;;;;;;;;;5013171;28;20041;-77
2023/03/23 02:59:43;;;;;;;10.10;6.10;;;;;;;;;;5004357;28;20151;-77
2023/03/23 03:02:13;;;;;;;8.02;4.82;;;;;;;;;;4983978;28;20057;-77
2023/03/23 03:04:40;;;;;;;13.88;6.45;;;;;;;;;;5000102;28;20052;-77
2023/03/23 03:07:10;;;;;;;9.57;5.50;;;;;;;;;;4963712;28;20045;-77
2023/03/23 03:09:59;;;;;;;12.60;5.88;;;;;;;;;;5001841;28;20045;-77
2023/03/23 03:12:41;;;;;;;8.50;5.55;;;;;;;;;;4977323;28;20136;-76
2023/03/23 03:15:26;;;;;;;7.20;4.15;;;;;;;;;;5000798;28;20049;-77
2023/03/23 03:18:13;;;;;;;9.93;5.07;;;;;;;;;;4981728;28;20156;-75
2023/03/23 03:20:43;;;;;;;8.80;5.00;;;;;;;;;;5001531;28;20113;-76
2023/03/23 03:23:12;;;;;;;7.47;4.90;;;;;;;;;;5012960;28;20072;-75
2023/03/23 03:25:40;;;;;;;8.90;4.32;;;;;;;;;;5015170;28;20045;-75
2023/03/23 03:28:06;;;;;;;7.40;4.28;;;;;;;;;;5014311;28;20045;-76
2023/03/23 03:30:34;;;;;;;11.57;5.55;;;;;;;;;;5011949;28;20056;-76
2023/03/23 03:33:02;;;;;;;7.65;4.03;;;;;;;;;;5008967;28;20136;-76
2023/03/23 03:35:30;;;;;;;12.07;5.20;;;;;;;;;;5009801;28;21605;-76
2023/03/23 03:37:57;;;;;;;9.07;4.80;;;;;;;;;;5008362;28;20524;-76
2023/03/23 03:40:24;;;;;;;6.63;3.85;;;;;;;;;;5011007;28;20056;-76
2023/03/23 03:42:50;;;;;;;9.25;4.85;;;;;;;;;;5006745;28;20033;-76
2023/03/23 03:45:18;;;;;;;7.95;4.15;;;;;;;;;;5009228;28;21756;-76
2023/03/23 03:47:44;;;;;;;11.43;4.68;;;;;;;;;;4992126;28;20188;-76
2023/03/23 03:50:10;;;;;;;7.85;4.30;;;;;;;;;;5006745;28;20401;-76
2023/03/23 03:52:38;;;;;;;9.77;4.97;;;;;;;;;;5012648;28;20052;-76
2023/03/23 03:55:04;;;;;;;10.80;4.80;;;;;;;;;;5008431;28;20584;-76
2023/03/23 03:57:31;;;;;;;8.48;4.53;;;;;;;;;;5009825;28;20045;-76
2023/03/23 03:59:57;;;;;;;5.78;3.85;;;;;;;;;;5012422;28;20041;-76
2023/03/23 04:02:23;;;;;;;7.95;3.90;;;;;;;;;;5018124;28;20092;-76
2023/03/23 04:04:52;;;;;;;7.65;4.25;;;;;;;;;;5024562;28;20855;-76
2023/03/23 04:07:18;;;;;;;5.95;3.53;;;;;;;;;;5008913;28;20059;-76
2023/03/23 04:09:46;;;;;;;10.73;5.28;;;;;;;;;;5010727;28;20045;-77
2023/03/23 04:12:12;;;;;;;8.35;4.13;;;;;;;;;;5010174;28;20049;-77
2023/03/23 04:14:38;;;;;;;12.15;5.72;;;;;;;;;;5007807;28;20048;-79
2023/03/23 04:17:06;;;;;;;9.60;5.70;;;;;;;;;;4999418;28;20045;-79
2023/03/23 04:19:33;;;;;;;8.75;5.10;;;;;;;;;;4993666;28;20546;-79
2023/03/23 04:21:59;;;;;;;9.52;4.47;;;;;;;;;;4993262;28;20055;-78
2023/03/23 04:24:28;;;;;;;6.95;3.42;;;;;;;;;;4995287;28;20049;-78
2023/03/23 04:26:54;;;;;;;9.27;4.15;;;;;;;;;;4996525;28;20117;-78
2023/03/23 04:29:20;;;;;;;6.05;3.90;;;;;;;;;;4993327;28;20600;-78
2023/03/23 04:31:46;;;;;;;9.88;3.90;;;;;;;;;;4998551;28;20044;-79
2023/03/23 04:34:15;;;;;;;8.10;4.40;;;;;;;;;;5009087;28;20052;-78
2023/03/23 04:36:42;;;;;;;7.05;3.50;;;;;;;;;;4994530;28;20041;-78
2023/03/23 04:39:09;;;;;;;9.23;4.70;;;;;;;;;;5011538;28;20045;-78
2023/03/23 04:41:39;;;;;;;7.10;4.10;;;;;;;;;;4997714;28;20041;-78
2023/03/23 04:44:06;;;;;;;11.27;4.35;;;;;;;;;;4995244;28;20037;-78
2023/03/23 04:46:32;;;;;;;7.70;2.85;;;;;;;;;;5011496;28;20052;-78
2023/03/23 04:48:59;;;;;;;7.05;2.85;;;;;;;;;;5011615;28;20085;-78
2023/03/23 04:51:31;;;;;;;6.32;2.67;;;;;;;;;;5013671;28;20049;-78
2023/03/23 04:53:57;;;;;;;5.32;2.15;;;;;;;;;;5013890;28;20465;-78
2023/03/23 04:56:23;;;;;;;4.57;1.70;;;;;;;;;;5006253;28;20103;-78
2023/03/23 04:58:50;;;;;;;7.90;1.80;;;;;;;;;;5014976;28;20044;-78
2023/03/23 05:01:17;;;;;;;6.50;2.00;;;;;;;;;;4997552;28;20068;-77
2023/03/23 05:03:43;;;;;;;11.30;1.92;;;;;;;;;;5016791;28;20397;-77
2023/03/23 05:06:10;;;;;;;5.63;2.03;;;;;;;;;;5009126;28;20545;-77
2023/03/23 05:08:38;;;;;;;6.75;1.83;;;;;;;;;;5025927;28;20068;-76
2023/03/23 05:11:05;;;;;;;3.60;1.73;;;;;;;;;;5006796;28;20044;-76
2023/03/23 05:13:32;;;;;;;8.93;2.33;;;;;;;;;;4999684;28;20603;-76
2023/03/23 05:15:58;;;;;;;3.25;2.05;;;;;;;;;;5015622;28;20045;-76
2023/03/23 05:18:25;;;;;;;11.98;2.92;;;;;;;;;;5003730;28;20044;-77
2023/03/23 05:20:52;;;;;;;7.15;2.35;;;;;;;;;;5008116;28;20673;-77
2023/03/23 05:23:24;;;;;;;7.82;2.70;;;;;;;;;;4995039;28;20156;-76
2023/03/23 05:25:54;;;;;;;9.27;2.15;;;;;;;;;;5010307;28;20060;-76
2023/03/23 05:28:22;;;;;;;12.48;2.78;;;;;;;;;;5007610;28;20032;-77
2023/03/23 05:30:48;;;;;;;13.23;3.22;;;;;;;;;;5005177;28;20055;-77
2023/03/23 05:33:14;;;;;;;12.30;2.38;;;;;;;;;;5007554;28;20036;-77
2023/03/23 05:35:41;;;;;;;11.75;2.78;;;;;;;;;;5009985;28;20075;-77
2023/03/23 05:38:07;;;;;;;11.60;2.90;;;;;;;;;;5017325;28;20044;-76
2023/03/23 05:40:33;;;;;;;11.02;3.33;;;;;;;;;;5014884;28;20037;-76
2023/03/23 05:43:00;;;;;;;12.15;3.20;;;;;;;;;;4996460;28;20049;-76
2023/03/23 05:45:26;;;;;;;13.40;3.15;;;;;;;;;;4994315;28;21087;-76
2023/03/23 05:47:53;;;;;;;11.10;3.05;;;;;;;;;;5006931;28;20080;-76
2023/03/23 05:50:19;;;;;;;13.23;3.50;;;;;;;;;;4986525;28;20388;-76
2023/03/23 05:52:45;;;;;;;12.93;3.40;;;;;;;;;;5005468;28;20077;-76
2023/03/23 05:55:12;;;;;;;12.05;2.95;;;;;;;;;;5006859;28;20049;-76
2023/03/23 05:57:39;;;;;;;17.00;4.57;;;;;;;;;;5004940;28;20053;-76
2023/03/23 06:00:18;;;;;;;12.07;3.67;;;;;;;;;;5008076;28;20166;-76
2023/03/23 06:02:45;;;;;;;22.50;4.05;;;;;;;;;;5007702;28;20054;-76
2023/03/23 06:05:11;;;;;;;14.77;3.42;;;;;;;;;;5006234;28;20176;-77
2023/03/23 06:07:37;;;;;;;15.15;3.08;;;;;;;;;;5026331;28;20547;-76
2023/03/23 06:10:04;;;;;;;14.57;3.53;;;;;;;;;;5011911;28;20041;-77
2023/03/23 06:12:31;;;;;;;22.42;5.22;;;;;;;;;;5000610;28;20051;-76
2023/03/23 06:14:57;;;;;;;29.08;5.97;;;;;;;;;;5010452;28;20045;-77
2023/03/23 06:17:24;;;;;;;19.90;3.95;;;;;;;;;;5010371;28;20041;-76
2023/03/23 06:19:50;;;;;;;18.67;3.97;;;;;;;;;;5015591;28;20049;-80
2023/03/23 06:22:17;;;;;;;16.95;3.58;;;;;;;;;;5012681;28;20127;-80
2023/03/23 06:24:43;;;;;;;16.73;3.13;;;;;;;;;;5023750;28;20064;-82
2023/03/23 06:27:10;;;;;;;19.13;3.38;;;;;;;;;;4997206;28;20081;-82
2023/03/23 06:29:36;;;;;;;15.88;3.83;;;;;;;;;;5000171;28;20081;-81
2023/03/23 06:32:04;;;;;;;28.10;4.15;;;;;;;;;;5018091;28;20045;-82
2023/03/23 06:34:30;;;;;;;16.90;3.65;;;;;;;;;;5013583;28;20512;-81
2023/03/23 06:36:56;;;;;;;17.13;3.75;;;;;;;;;;5014465;28;20385;-80
2023/03/23 06:39:23;;;;;;;17.17;3.47;;;;;;;;;;5020043;28;20088;-81
2023/03/23 06:41:49;;;;;;;27.80;4.03;;;;;;;;;;5006541;28;20385;-81
2023/03/23 06:44:15;;;;;;;18.70;3.22;;;;;;;;;;5006725;28;20045;-81
2023/03/23 06:46:42;;;;;;;19.52;4.20;;;;;;;;;;5006842;28;20125;-81
2023/03/23 06:49:08;;;;;;;20.63;3.83;;;;;;;;;;5009479;28;20478;-76
2023/03/23 06:51:35;;;;;;;21.58;3.03;;;;;;;;;;4999964;28;20041;-75
2023/03/23 06:54:01;;;;;;;20.27;3.15;;;;;;;;;;5021649;28;20055;-76
2023/03/23 06:56:27;;;;;;;17.75;3.17;;;;;;;;;;5025836;28;20657;-77
2023/03/23 06:58:53;;;;;;;18.13;3.80;;;;;;;;;;5018268;28;20449;-76
2023/03/23 07:01:19;;;;;;;9.93;2.42;;;;;;;;;;5013429;28;20090;-76
2023/03/23 07:03:46;;;;;;;13.73;3.40;;;;;;;;;;5006620;28;20040;-77
2023/03/23 07:06:12;;;;;;;10.70;2.17;;;;;;;;;;5006394;28;22130;-77
2023/03/23 07:08:38;;;;;;;13.88;2.60;;;;;;;;;;4994001;28;20493;-77
2023/03/23 07:11:05;;;;;;;14.07;2.63;;;;;;;;;;4995009;28;20144;-76
2023/03/23 07:13:31;;;;;;;14.98;2.40;;;;;;;;;;5010512;28;20045;-77
2023/03/23 07:15:57;;;;;;;10.57;2.30;;;;;;;;;;5009164;28;20041;-77
2023/03/23 07:18:24;;;;;;;6.28;1.42;;;;;;;;;;4997176;28;20060;-77
2023/03/23 07:20:50;;;;;;;12.63;2.60;;;;;;;;;;5010635;28;20044;-77
2023/03/23 07:23:17;;;;;;;10.73;2.92;;;;;;;;;;5012735;28;20043;-76
2023/03/23 07:25:44;;;;;;;11.00;2.55;;;;;;;;;;5011744;28;20049;-77
2023/03/23 07:28:11;;;;;;;9.10;1.58;;;;;;;;;;4998556;28;20194;-77
2023/03/23 07:30:38;;;;;;;14.57;2.40;;;;;;;;;;5004940;28;20045;-77
2023/03/23 07:33:05;;;;;;;12.10;2.38;;;;;;;;;;4998514;28;20179;-76
2023/03/23 07:35:31;;;;;;;13.98;2.28;;;;;;;;;;5005348;28;20042;-79
2023/03/23 07:37:58;;;;;;;11.10;2.15;;;;;;;;;;5016813;28;21232;-79
2023/03/23 07:40:24;;;;;;;15.80;2.30;;;;;;;;;;5002073;28;20708;-81
2023/03/23 07:42:55;;;;;;;13.55;2.35;;;;;;;;;;5016782;28;20045;-82
2023/03/23 07:45:21;;;;;;;10.23;1.58;;;;;;;;;;5020882;28;20128;-81
2023/03/23 07:47:47;;;;;;;16.88;2.88;;;;;;;;;;5003818;28;20049;-81
2023/03/23 07:50:13;;;;;;;14.60;3.10;;;;;;;;;;5002699;28;20041;-81
2023/03/23 07:52:41;;;;;;;20.90;4.10;;;;;;;;;;5018666;28;20497;-81
2023/03/23 07:55:08;;;;;;;17.45;3.05;;;;;;;;;;5023820;28;20495;-81
2023/03/23 07:57:34;;;;;;;17.27;3.05;;;;;;;;;;5025255;28;20043;-82
2023/03/23 08:00:03;;;;;;;23.92;3.97;;;;;;;;;;5021280;28;20045;-81
2023/03/23 08:02:31;;;;;;;19.48;3.70;;;;;;;;;;5024150;28;20065;-81
2023/03/23 08:05:00;;;;;;;25.25;4.65;;;;;;;;;;5040671;28;20142;-81
2023/03/23 08:07:26;;;;;;;22.33;3.50;;;;;;;;;;5020773;28;20128;-81
2023/03/23 08:09:52;;;;;;;21.08;3.85;;;;;;;;;;5004588;28;20045;-80
2023/03/23 08:12:18;;;;;;;20.38;4.20;;;;;;;;;;5022830;28;20059;-79
2023/03/23 08:14:45;;;;;;;21.33;4.00;;;;;;;;;;5002578;28;20965;-79
2023/03/23 08:17:11;;;;;;;19.98;4.32;;;;;;;;;;5006843;28;20069;-80
2023/03/23 08:19:37;;;;;;;21.90;4.45;;;;;;;;;;5016686;28;20045;-79
2023/03/23 08:22:04;;;;;;;23.95;4.07;;;;;;;;;;5024624;28;20073;-79
2023/03/23 08:24:30;;;;;;;32.17;4.75;;;;;;;;;;5026379;28;20082;-79
2023/03/23 08:26:57;;;;;;;37.95;5.53;;;;;;;;;;5035927;28;20041;-79
2023/03/23 08:29:23;;;;;;;24.02;4.90;;;;;;;;;;5021721;28;20045;-80
2023/03/23 08:31:49;;;;;;;30.25;5.22;;;;;;;;;;5035720;28;20051;-78
2023/03/23 08:34:15;;;;;;;34.40;7.07;;;;;;;;;;5013132;28;20059;-77
2023/03/23 08:36:43;;;;;;;26.35;4.65;;;;;;;;;;5029562;28;20056;-80
2023/03/23 08:39:10;;;;;;;34.08;5.65;;;;;;;;;;5003774;28;20052;-80
2023/03/23 08:41:37;;;;;;;47.97;7.05;;;;;;;;;;5022431;28;20049;-81
2023/03/23 08:44:04;;;;;;;34.55;5.47;;;;;;;;;;5001562;28;20540;-81
2023/03/23 08:46:30;;;;;;;32.38;5.35;;;;;;;;;;5018115;28;20509;-81
2023/03/23 08:48:56;;;;;;;25.48;4.78;;;;;;;;;;5017033;28;20055;-81
2023/03/23 08:51:22;;;;;;;37.35;5.20;;;;;;;;;;5005629;28;20041;-80
2023/03/23 08:53:48;;;;;;;22.02;4.47;;;;;;;;;;5021113;28;20057;-80
2023/03/23 08:56:14;;;;;;;32.42;5.65;;;;;;;;;;5018171;28;20140;-79
2023/03/23 08:58:40;;;;;;;18.60;4.28;;;;;;;;;;5016433;28;20082;-80
2023/03/23 09:01:07;;;;;;;31.85;5.60;;;;;;;;;;5013722;28;20096;-80
2023/03/23 09:03:34;;;;;;;25.70;4.68;;;;;;;;;;5015619;28;20178;-79
2023/03/23 09:06:05;;;;;;;30.52;5.75;;;;;;;;;;5016556;28;20051;-79
2023/03/23 09:08:31;;;;;;;22.33;3.90;;;;;;;;;;5014871;28;20128;-80
2023/03/23 09:11:02;;;;;;;26.27;5.05;;;;;;;;;;5017089;28;20048;-80
2023/03/23 09:13:28;;;;;;;23.52;4.72;;;;;;;;;;5011974;28;20044;-79
2023/03/23 09:15:54;;;;;;;28.58;5.80;;;;;;;;;;5011074;28;20037;-80
2023/03/23 09:18:21;;;;;;;30.38;5.63;;;;;;;;;;4996463;28;20076;-80
2023/03/23 09:20:49;;;;;;;24.05;4.57;;;;;;;;;;4991272;28;20045;-79
2023/03/23 09:23:16;;;;;;;26.42;5.05;;;;;;;;;;5011775;28;20076;-79
2023/03/23 09:25:42;;;;;;;25.58;4.47;;;;;;;;;;5011346;28;20051;-79
2023/03/23 09:28:08;;;;;;;25.08;5.05;;;;;;;;;;5016379;28;20557;-79
2023/03/23 09:30:36;;;;;;;33.63;5.85;;;;;;;;;;5015716;28;20049;-79
2023/03/23 09:33:03;;;;;;;32.75;4.70;;;;;;;;;;5012319;28;20128;-78
2023/03/23 09:35:29;;;;;;;25.63;4.88;;;;;;;;;;5002517;28;20049;-78
2023/03/23 09:37:56;;;;;;;24.23;5.28;;;;;;;;;;4992543;28;20033;-78
2023/03/23 09:40:22;;;;;;;24.10;4.78;;;;;;;;;;5012262;28;20037;-78
2023/03/23 09:42:55;;;;;;;28.98;4.72;;;;;;;;;;4999563;28;20048;-78
2023/03/23 09:45:27;;;;;;;29.80;5.80;;;;;;;;;;5007795;28;20989;-78
2023/03/23 09:48:05;;;;;;;28.55;4.60;;;;;;;;;;5009606;28;20131;-78
2023/03/23 09:50:33;;;;;;;22.58;4.25;;;;;;;;;;5010391;28;20041;-78
2023/03/23 09:52:59;;;;;;;30.90;5.38;;;;;;;;;;5012975;28;20510;-78
2023/03/23 09:55:25;;;;;;;21.77;3.53;;;;;;;;;;4994370;28;20044;-78
2023/03/23 09:57:51;;;;;;;38.08;5.30;;;;;;;;;;5013435;28;20677;-78
2023/03/23 10:00:17;;;;;;;24.27;5.30;;;;;;;;;;5017815;28;20050;-79
2023/03/23 10:02:47;;;;;;;28.75;5.13;;;;;;;;;;5020118;28;20060;-78
2023/03/23 10:05:31;;;;;;;24.95;4.55;;;;;;;;;;5025288;28;20041;-77
2023/03/23 10:07:58;;;;;;;19.67;3.80;;;;;;;;;;5030644;28;20591;-78
2023/03/23 10:10:27;;;;;;;19.77;6.00;;;;;;;;;;5031564;28;20307;-79
2023/03/23 10:12:56;;;;;;;24.63;4.88;;;;;;;;;;5022633;28;20041;-77
2023/03/23 10:15:38;;;;;;;25.85;4.18;;;;;;;;;;5005753;28;20042;-77
2023/03/23 10:18:23;;;;;;;15.82;3.70;;;;;;;;;;5007136;28;21023;-79
2023/03/23 10:20:49;;;;;;;12.43;3.05;;;;;;;;;;5017326;28;20041;-79
2023/03/23 10:23:19;;;;;;;23.65;5.13;;;;;;;;;;5008004;28;20049;-79
2023/03/23 10:26:05;;;;;;;21.95;3.55;;;;;;;;;;5012901;28;21032;-80
2023/03/23 10:28:39;;;;;;;25.98;5.03;;;;;;;;;;5017760;28;20181;-81
2023/03/23 10:31:09;;;;;;;27.05;5.60;;;;;;;;;;5020568;28;20041;-81
2023/03/23 10:33:43;;;;;;;23.35;3.72;;;;;;;;;;5014903;28;20111;-80
2023/03/23 10:36:13;;;;;;;24.98;4.07;;;;;;;;;;5017170;28;20338;-80
2023/03/23 10:38:41;;;;;;;19.83;3.65;;;;;;;;;;5000087;28;20188;-80
2023/03/23 10:41:15;;;;;;;23.25;4.38;;;;;;;;;;5015520;28;20597;-81
2023/03/23 10:43:42;;;;;;;;;;;;;;;;;;4999861;28;20041;-80
2023/03/23 10:46:26;;;;;;;27.08;4.82;;;;;;;;;;5017953;28;19964;-82
2023/03/23 10:48:53;;;;;;;27.92;4.75;;;;;;;;;;5014723;28;20049;-80
2023/03/23 10:51:21;;;;;;;19.20;3.78;;;;;;;;;;5001085;28;20049;-79
2023/03/23 10:53:52;;;;;;;19.98;4.15;;;;;;;;;;5007787;28;20050;-81
2023/03/23 10:56:27;;;;;;;22.25;4.75;;;;;;;;;;5019257;28;20048;-82
2023/03/23 10:58:54;;;;;;;25.83;4.53;;;;;;;;;;5018843;28;20045;-82
2023/03/23 11:01:29;;;;;;;20.52;3.85;;;;;;;;;;5020804;28;20136;-81
2023/03/23 11:03:55;;;;;;;16.42;3.63;;;;;;;;;;5015880;28;20083;-81
2023/03/23 11:06:22;;;;;;;17.92;3.50;;;;;;;;;;5004068;28;20041;-80
2023/03/23 11:08:50;;;;;;;19.58;4.18;;;;;;;;;;5018824;28;20166;-82
2023/03/23 11:11:18;;;;;;;22.17;4.60;;;;;;;;;;5001266;28;20041;-81
2023/03/23 11:13:45;;;;;;;21.38;4.57;;;;;;;;;;5019821;28;20750;-81
2023/03/23 11:16:22;;;;;;;27.38;4.70;;;;;;;;;;5010721;28;20118;-81
2023/03/23 11:18:49;;;;;;;10.93;2.50;;;;;;;;;;5021329;28;20048;-82
2023/03/23 11:21:15;;;;;;;18.92;4.05;;;;;;;;;;5005662;28;20038;-83
2023/03/23 11:23:42;;;;;;;19.38;4.50;;;;;;;;;;5010674;28;20055;-85
2023/03/23 11:26:12;;;;;;;18.05;2.92;;;;;;;;;;5025802;28;20042;-80
2023/03/23 11:28:43;;;;;;;14.70;3.03;;;;;;;;;;5016475;28;20167;-80
2023/03/23 11:31:10;;;;;;;22.25;4.55;;;;;;;;;;5023795;28;20033;-81
2023/03/23 11:33:38;;;;;;;21.88;4.45;;;;;;;;;;5017368;28;20080;-80
2023/03/23 11:36:05;;;;;;;20.23;4.43;;;;;;;;;;5006045;28;20116;-80
2023/03/23 11:38:33;;;;;;;22.27;4.07;;;;;;;;;;5018955;28;20053;-81
2023/03/23 11:40:59;;;;;;;23.50;4.70;;;;;;;;;;5018027;28;20948;-82
2023/03/23 11:43:26;;;;;;;24.13;4.53;;;;;;;;;;5021304;28;20057;-81
2023/03/23 11:45:56;;;;;;;23.17;5.57;;;;;;;;;;5028828;28;20095;-81
2023/03/23 11:48:26;;;;;;;18.90;4.28;;;;;;;;;;5021996;28;20119;-80
2023/03/23 11:50:59;;;;;;;19.98;3.78;;;;;;;;;;5021974;28;20045;-81
2023/03/23 11:53:28;;;;;;;20.92;4.03;;;;;;;;;;5010150;28;20033;-81
2023/03/23 11:56:12;;;;;;;17.73;3.53;;;;;;;;;;5024074;28;20041;-80
2023/03/23 11:58:38;;;;;;;15.53;3.60;;;;;;;;;;5024305;28;20047;-81
2023/03/23 12:01:04;;;;;;;24.67;4.55;;;;;;;;;;5023892;28;20056;-81
2023/03/23 12:03:33;;;;;;;22.30;4.40;;;;;;;;;;5027522;28;20042;-82
2023/03/23 12:06:06;;;;;;;21.90;4.80;;;;;;;;;;5030101;28;20510;-83
2023/03/23 12:08:57;;;;;;;24.67;3.97;;;;;;;;;;5018791;28;20053;-82
2023/03/23 12:11:42;;;;;;;15.43;3.58;;;;;;;;;;5011567;28;20045;-78
2023/03/23 12:14:12;;;;;;;14.25;3.08;;;;;;;;;;5003041;28;20045;-76
2023/03/23 12:16:56;;;;;;;17.23;3.88;;;;;;;;;;5014961;28;20346;-75
2023/03/23 12:19:38;;;;;;;21.17;4.40;;;;;;;;;;4998387;28;22142;-76
2023/03/23 12:22:26;;;;;;;11.73;3.28;;;;;;;;;;5019331;28;20037;-78
2023/03/23 12:25:11;;;;;;;22.67;3.40;;;;;;;;;;5020069;28;20536;-82
2023/03/23 12:27:56;;;;;;;13.10;2.63;;;;;;;;;;5023568;28;20041;-79
2023/03/23 12:31:01;;;;;;;18.95;3.47;;;;;;;;;;5018026;28;20057;-78
2023/03/23 12:33:33;;;;;;;19.92;3.92;;;;;;;;;;4986148;28;20052;-78
2023/03/23 12:36:00;;;;;;;19.50;3.80;;;;;;;;;;5003711;28;20054;-77
2023/03/23 12:38:41;;;;;;;18.48;3.25;;;;;;;;;;5002441;28;20053;-79
2023/03/23 12:41:08;;;;;;;18.67;3.67;;;;;;;;;;5022316;28;20052;-80
2023/03/23 12:43:40;;;;;;;14.25;3.45;;;;;;;;;;5021730;28;20045;-81
2023/03/23 12:46:27;;;;;;;20.58;4.47;;;;;;;;;;5010935;28;20174;-79
2023/03/23 12:48:59;;;;;;;14.15;4.03;;;;;;;;;;5021706;28;20057;-79
2023/03/23 12:51:37;;;;;;;14.68;3.58;;;;;;;;;;5003621;28;20053;-79
2023/03/23 12:54:10;;;;;;;17.52;3.28;;;;;;;;;;5020234;28;20422;-80
2023/03/23 12:56:52;;;;;;;17.40;3.60;;;;;;;;;;5021651;28;20111;-79
2023/03/23 12:59:35;;;;;;;20.25;4.57;;;;;;;;;;5009525;28;20041;-79
2023/03/23 13:02:21;;;;;;;16.63;3.13;;;;;;;;;;5024886;28;20064;-79
2023/03/23 13:04:55;;;;;;;15.70;3.00;;;;;;;;;;4999281;28;20103;-80
2023/03/23 13:07:27;;;;;;;15.38;3.28;;;;;;;;;;5001158;28;20053;-78
2023/03/23 13:10:03;;;;;;;16.80;3.33;;;;;;;;;;4997694;28;20041;-79
2023/03/23 13:12:30;;;;;;;17.00;3.35;;;;;;;;;;5016180;28;20053;-79
2023/03/23 13:14:56;;;;;;;20.27;3.60;;;;;;;;;;5004039;28;20044;-74
2023/03/23 13:17:30;;;;;;;23.10;3.83;;;;;;;;;;5022029;28;20061;-79
2023/03/23 13:19:56;;;;;;;;;;;;;;;;;;5023109;28;20034;-79
2023/03/23 13:22:27;;;;;;;14.88;2.95;;;;;;;;;;5009154;28;19921;-79
2023/03/23 13:24:59;;;;;;;14.85;3.33;;;;;;;;;;5025130;28;20230;-78
2023/03/23 13:27:29;;;;;;;12.52;2.72;;;;;;;;;;5012217;28;20120;-78
2023/03/23 13:30:03;;;;;;;13.23;3.33;;;;;;;;;;5021992;28;20056;-73
2023/03/23 13:32:30;;;;;;;15.45;3.00;;;;;;;;;;4996196;28;20118;-73
2023/03/23 13:34:56;;;;;;;15.55;2.53;;;;;;;;;;5004425;28;20041;-74
2023/03/23 13:37:25;;;;;;;14.05;3.47;;;;;;;;;;5019867;28;20439;-76
2023/03/23 13:39:53;;;;;;;14.05;3.38;;;;;;;;;;5016127;28;20117;-75
2023/03/23 13:42:21;;;;;;;12.30;2.95;;;;;;;;;;5015834;28;20045;-75
2023/03/23 13:44:53;;;;;;;11.70;2.67;;;;;;;;;;5029532;28;20425;-75
2023/03/23 13:47:22;;;;;;;12.95;3.30;;;;;;;;;;5015381;28;21844;-75
2023/03/23 13:49:59;;;;;;;10.40;2.60;;;;;;;;;;5014709;28;20049;-74
2023/03/23 13:52:26;;;;;;;16.45;3.00;;;;;;;;;;5013775;28;20539;-75
2023/03/23 13:54:52;;;;;;;9.55;2.63;;;;;;;;;;5014581;28;20049;-75
2023/03/23 13:57:28;;;;;;;11.80;2.25;;;;;;;;;;5015288;28;20052;-74
2023/03/23 13:59:59;;;;;;;13.45;3.58;;;;;;;;;;5014507;28;20044;-75
2023/03/23 14:02:28;;;;;;;17.25;3.65;;;;;;;;;;5012771;28;20049;-75
2023/03/23 14:04:55;;;;;;;13.23;2.72;;;;;;;;;;5013450;28;20049;-75
2023/03/23 14:07:24;;;;;;;15.15;3.28;;;;;;;;;;5015419;28;20056;-74
2023/03/23 14:09:51;;;;;;;18.92;3.40;;;;;;;;;;5001975;28;20037;-75
2023/03/23 14:12:22;;;;;;;19.15;3.28;;;;;;;;;;5011926;28;20049;-75
2023/03/23 14:14:50;;;;;;;14.40;3.03;;;;;;;;;;5014335;28;20060;-76
2023/03/23 14:17:22;;;;;;;11.90;2.70;;;;;;;;;;5004734;28;20038;-74
2023/03/23 14:19:52;;;;;;;21.23;3.58;;;;;;;;;;4999544;28;20495;-74
2023/03/23 14:22:20;;;;;;;11.73;2.83;;;;;;;;;;5017162;28;20051;-74
2023/03/23 14:24:46;;;;;;;19.50;3.70;;;;;;;;;;5018060;28;20103;-75
2023/03/23 14:27:17;;;;;;;18.42;4.90;;;;;;;;;;5016296;28;20557;-75
2023/03/23 14:29:44;;;;;;;15.50;3.45;;;;;;;;;;5013275;28;20188;-75
2023/03/23 14:32:25;;;;;;;18.00;3.72;;;;;;;;;;4997468;28;20084;-76
2023/03/23 14:34:52;;;;;;;18.65;3.40;;;;;;;;;;5008397;28;20045;-79
2023/03/23 14:37:18;;;;;;;16.67;3.13;;;;;;;;;;4994436;28;20040;-78
2023/03/23 14:39:46;;;;;;;16.27;3.70;;;;;;;;;;4983615;28;20037;-78
2023/03/23 14:42:17;;;;;;;15.43;3.15;;;;;;;;;;4992469;28;20179;-78
2023/03/23 14:44:48;;;;;;;22.48;4.13;;;;;;;;;;4993150;28;20079;-78